East Douglas, Massachusetts
Current Conditions -  °F | °C
As of 1:54 AM on Wednesday 26 Nov 2014 (Local Time) from KORH Reporting Station
Clear Clear  
Wind Chill: 36°   Ceiling: Unl
Heat Index: 40°   Visibility: 10mi
Dew Point: 27°   Wind: 6mph
Humidity: 60%   Direction: 280°W
Pressure: 30.14"   Gusts: NA
Location:  42.0528°N, 71.7498°W
Report Text: KORH 260654Z AUTO 28005KT 10SM CLR 04/M03 A3014 RMK AO2 SLP211 T00441028
Loading
Personal Weather Stations






























Interactive Weather Map New forecast layout! Learn more

10-Day Weather Forecast

Advertisements
Track Severe Weather on mobile